createdAt,value
2018-04-22T00:00:23.133Z,15.7
2018-04-22T00:01:48.012Z,15.7
2018-04-22T00:03:12.940Z,15.6
2018-04-22T00:04:37.836Z,15.6
2018-04-22T00:06:02.753Z,15.6
2018-04-22T00:07:25.102Z,15.6
2018-04-22T00:08:44.922Z,15.6
2018-04-22T00:10:07.308Z,15.5
2018-04-22T00:11:29.676Z,15.5
2018-04-22T00:12:54.558Z,15.6
2018-04-22T00:14:19.459Z,15.4
2018-04-22T00:15:39.304Z,15.3
2018-04-22T00:16:59.176Z,15.4
2018-04-22T00:18:21.531Z,15.4
2018-04-22T00:19:41.377Z,15.2
2018-04-22T00:21:06.291Z,15.4
2018-04-22T00:22:46.409Z,15.5
2018-04-22T00:24:06.284Z,15.8
2018-04-22T00:25:28.677Z,15.5
2018-04-22T00:26:48.547Z,15.4
2018-04-22T00:28:21.015Z,15.3
2018-04-22T00:29:40.850Z,15.2
2018-04-22T00:31:00.685Z,15.2
2018-04-22T00:32:20.505Z,15.3
2018-04-22T00:33:42.851Z,15.3
2018-04-22T00:35:10.285Z,15.4
2018-04-22T00:36:37.742Z,15.3
2018-04-22T00:38:02.675Z,15.3
2018-04-22T00:39:22.494Z,15.3
2018-04-22T00:40:44.846Z,15.3
2018-04-22T00:42:04.718Z,15.2
2018-04-22T00:43:32.147Z,15.2
2018-04-22T00:44:57.038Z,15.2
2018-04-22T00:46:16.928Z,15.4
2018-04-22T00:47:46.875Z,15.3
2018-04-22T00:49:06.744Z,15.4
2018-04-22T00:50:29.170Z,15.4
2018-04-22T00:51:49.082Z,15.3
2018-04-22T00:53:11.441Z,15.3
2018-04-22T00:54:31.295Z,15.2
2018-04-22T00:55:51.166Z,15.1
2018-04-22T00:57:11.032Z,15.1
2018-04-22T00:58:35.904Z,14.9
2018-04-22T00:59:58.317Z,15
2018-04-22T01:01:18.162Z,15.2
2018-04-22T01:02:38.030Z,14.9
2018-04-22T01:04:00.434Z,14.9
2018-04-22T01:05:20.271Z,15.1
2018-04-22T01:06:40.087Z,15
2018-04-22T01:07:59.959Z,15.1
2018-04-22T01:09:22.313Z,15.1
2018-04-22T01:10:42.151Z,15.1
2018-04-22T01:12:01.991Z,15.1
2018-04-22T01:13:29.416Z,15
2018-04-22T01:14:54.307Z,15.1
2018-04-22T01:16:19.207Z,15.2
2018-04-22T01:17:39.073Z,15.2
2018-04-22T01:19:01.419Z,15.1
2018-04-22T01:20:23.842Z,15
2018-04-22T01:21:48.777Z,14.9
2018-04-22T01:23:08.636Z,15
2018-04-22T01:24:28.487Z,14.9
2018-04-22T01:25:48.340Z,14.7
2018-04-22T01:27:08.158Z,14.8
2018-04-22T01:28:28.054Z,14.9
2018-04-22T01:29:47.920Z,14.9
2018-04-22T01:31:10.312Z,14.9
2018-04-22T01:32:30.187Z,14.8
2018-04-22T01:33:57.626Z,14.9
2018-04-22T01:35:17.496Z,14.8
2018-04-22T01:36:37.318Z,14.8
2018-04-22T01:37:59.728Z,14.8
2018-04-22T01:39:22.082Z,14.8
2018-04-22T01:40:41.905Z,14.8
2018-04-22T01:42:09.374Z,14.9
2018-04-22T01:43:34.301Z,14.7
2018-04-22T01:44:56.654Z,14.6
2018-04-22T01:46:21.534Z,14.7
2018-04-22T01:47:41.352Z,14.7
2018-04-22T01:49:03.766Z,14.6
2018-04-22T01:50:23.678Z,14.6
2018-04-22T01:51:43.552Z,14.7
2018-04-22T01:53:03.396Z,14.7
2018-04-22T01:54:23.270Z,14.8
2018-04-22T01:55:43.103Z,15
2018-04-22T01:57:05.464Z,14.8
2018-04-22T01:58:27.878Z,14.7
2018-04-22T01:59:52.788Z,14.5
2018-04-22T02:01:17.692Z,14.5
2018-04-22T02:02:37.518Z,14.6
2018-04-22T02:03:57.349Z,14.7
2018-04-22T02:05:37.416Z,14.7
2018-04-22T02:06:57.288Z,14.8
2018-04-22T02:08:24.765Z,14.5
2018-04-22T02:09:49.700Z,14.5
2018-04-22T02:11:12.070Z,14.4
2018-04-22T02:12:31.943Z,14.6
2018-04-22T02:14:01.875Z,14.7
2018-04-22T02:15:24.266Z,14.6
2018-04-22T02:16:44.133Z,14.6
2018-04-22T02:18:06.493Z,14.8
2018-04-22T02:19:36.437Z,14.7
2018-04-22T02:20:56.280Z,14.7
2018-04-22T02:22:16.119Z,14.7
2018-04-22T02:23:35.955Z,14.6
2018-04-22T02:24:55.799Z,14.8
2018-04-22T02:26:18.186Z,14.7
2018-04-22T02:27:38.085Z,14.8
2018-04-22T02:28:57.917Z,14.8
2018-04-22T02:30:17.775Z,14.5
2018-04-22T02:31:37.644Z,14.5
2018-04-22T02:32:57.517Z,14.5
2018-04-22T02:34:22.435Z,14.6
2018-04-22T02:35:42.256Z,14.6
2018-04-22T02:37:04.627Z,14.5
2018-04-22T02:38:24.450Z,14.7
2018-04-22T02:39:44.278Z,14.6
2018-04-22T02:41:06.621Z,14.4
2018-04-22T02:42:26.494Z,14.5
2018-04-22T02:43:46.338Z,14.7
2018-04-22T02:45:06.220Z,14.7
2018-04-22T02:46:26.057Z,14.6
2018-04-22T02:47:45.914Z,14.8
2018-04-22T02:49:05.777Z,14.7
2018-04-22T02:50:25.601Z,14.5
2018-04-22T02:51:50.493Z,14.2
2018-04-22T02:53:12.869Z,14.3
2018-04-22T02:54:42.818Z,14.3
2018-04-22T02:56:10.248Z,14.1
2018-04-22T02:57:30.067Z,14.2
2018-04-22T02:58:49.937Z,14.2
2018-04-22T03:00:17.369Z,14.3
2018-04-22T03:01:42.251Z,14.3
2018-04-22T03:03:02.072Z,14.4
2018-04-22T03:04:27.021Z,14.3
2018-04-22T03:05:46.846Z,14.2
2018-04-22T03:07:06.673Z,14.2
2018-04-22T03:08:26.489Z,14.5
2018-04-22T03:09:56.423Z,14.4
2018-04-22T03:11:16.299Z,14.5
2018-04-22T03:12:46.242Z,14.3
2018-04-22T03:14:06.068Z,14.4
2018-04-22T03:15:30.974Z,14.2
2018-04-22T03:16:50.849Z,14.3
2018-04-22T03:18:10.674Z,14.6
2018-04-22T03:19:35.564Z,14.4
2018-04-22T03:20:57.928Z,14.5
2018-04-22T03:22:17.790Z,14.4
2018-04-22T03:23:37.623Z,14.5
2018-04-22T03:24:57.512Z,14.3
2018-04-22T03:26:17.330Z,14.5
2018-04-22T03:27:37.198Z,14.7
2018-04-22T03:28:59.569Z,14.7
2018-04-22T03:30:21.959Z,14.6
2018-04-22T03:31:46.874Z,14.7
2018-04-22T03:33:09.229Z,14.6
2018-04-22T03:34:31.647Z,14.5
2018-04-22T03:35:56.581Z,14.6
2018-04-22T03:37:18.965Z,14.6
2018-04-22T03:38:41.371Z,14.5
2018-04-22T03:40:01.190Z,14.5
2018-04-22T03:41:21.056Z,14.7
2018-04-22T03:42:40.877Z,14.5
2018-04-22T03:44:00.735Z,14.3
2018-04-22T03:45:20.545Z,14.4
2018-04-22T03:46:40.386Z,14.5
2018-04-22T03:48:02.774Z,14.6
2018-04-22T03:49:22.598Z,14.6
2018-04-22T03:50:57.677Z,14.7
2018-04-22T03:52:22.591Z,14.6
2018-04-22T03:53:45.030Z,14.5
2018-04-22T03:55:04.860Z,14.6
2018-04-22T03:56:32.280Z,14.5
2018-04-22T03:57:54.665Z,14.5
2018-04-22T03:59:14.480Z,14.3
2018-04-22T04:00:34.303Z,14.3
2018-04-22T04:01:54.161Z,14.4
2018-04-22T04:03:24.107Z,14.5
2018-04-22T04:04:46.482Z,14.5
2018-04-22T04:06:08.832Z,14.4
2018-04-22T04:07:31.197Z,14.4
2018-04-22T04:08:56.097Z,14.5
2018-04-22T04:10:18.485Z,14.5
2018-04-22T04:11:38.364Z,14.4
2018-04-22T04:12:58.211Z,14.4
2018-04-22T04:14:18.065Z,14.3
2018-04-22T04:15:37.915Z,14.4
2018-04-22T04:16:57.783Z,14.3
2018-04-22T04:18:17.621Z,14.6
2018-04-22T04:19:37.447Z,14.6
2018-04-22T04:20:57.332Z,14.4
2018-04-22T04:22:19.746Z,14.4
2018-04-22T04:23:44.678Z,14.3
2018-04-22T04:25:04.504Z,14.1
2018-04-22T04:26:34.466Z,14.3
2018-04-22T04:27:54.349Z,14.3
2018-04-22T04:29:14.218Z,14.3
2018-04-22T04:30:36.593Z,14.3
2018-04-22T04:32:01.464Z,14.3
2018-04-22T04:33:21.307Z,14.3
2018-04-22T04:34:41.144Z,14.1
2018-04-22T04:36:00.990Z,14.1
2018-04-22T04:37:20.867Z,14.2
2018-04-22T04:38:40.688Z,14.2
2018-04-22T04:40:00.543Z,14.5
2018-04-22T04:41:20.351Z,14.5
2018-04-22T04:42:40.167Z,14.5
2018-04-22T04:44:02.593Z,14.6
2018-04-22T04:45:22.456Z,14.4
2018-04-22T04:46:42.272Z,14.3
2018-04-22T04:48:07.196Z,14.2
2018-04-22T04:49:27.070Z,14.3
2018-04-22T04:50:54.488Z,14.2
2018-04-22T04:52:14.317Z,14.4
2018-04-22T04:53:34.165Z,14.5
2018-04-22T04:54:59.092Z,14.4
2018-04-22T04:56:18.951Z,14.4
2018-04-22T04:57:38.791Z,14.4
2018-04-22T04:59:06.198Z,14.5
2018-04-22T05:00:28.559Z,14.5
2018-04-22T05:01:48.412Z,14.7
2018-04-22T05:03:08.312Z,14.6
2018-04-22T05:04:28.161Z,14.5
2018-04-22T05:05:48.012Z,14.4
2018-04-22T05:07:07.856Z,14.3
2018-04-22T05:08:27.755Z,14.3
2018-04-22T05:09:47.627Z,14.3
2018-04-22T05:11:09.973Z,14.3
2018-04-22T05:12:29.813Z,14.4
2018-04-22T05:13:52.158Z,14.4
2018-04-22T05:15:12.030Z,14.5
2018-04-22T05:16:34.412Z,14.4
2018-04-22T05:17:54.265Z,14.4
2018-04-22T05:19:14.079Z,14.5
2018-04-22T05:20:38.958Z,14.6
2018-04-22T05:21:58.770Z,14.8
2018-04-22T05:23:18.624Z,14.9
2018-04-22T05:24:43.540Z,14.9
2018-04-22T05:26:16.020Z,14.9
2018-04-22T05:27:40.898Z,14.9
2018-04-22T05:29:00.748Z,15
2018-04-22T05:30:20.618Z,14.9
2018-04-22T05:31:40.444Z,14.8
2018-04-22T05:33:00.269Z,14.8
2018-04-22T05:34:20.090Z,14.9
2018-04-22T05:35:45.007Z,14.9
2018-04-22T05:37:04.825Z,15.1
2018-04-22T05:38:27.193Z,15
2018-04-22T05:39:49.560Z,14.9
2018-04-22T05:41:09.385Z,14.8
2018-04-22T05:42:29.196Z,14.8
2018-04-22T05:43:49.052Z,14.9
2018-04-22T05:45:08.868Z,15
2018-04-22T05:46:31.212Z,14.9
2018-04-22T05:47:51.030Z,15
2018-04-22T05:49:10.854Z,14.9
2018-04-22T05:50:30.672Z,15
2018-04-22T05:51:53.058Z,15.1
2018-04-22T05:53:15.416Z,15.1
2018-04-22T05:54:37.794Z,15
2018-04-22T05:56:02.691Z,15.1
2018-04-22T05:57:27.601Z,15.3
2018-04-22T05:58:52.512Z,15.2
2018-04-22T06:00:14.918Z,15.2
2018-04-22T06:01:37.299Z,15.3
2018-04-22T06:02:59.648Z,15.3
2018-04-22T06:04:24.556Z,15.4
2018-04-22T06:05:44.394Z,15.4
2018-04-22T06:07:04.263Z,15.3
2018-04-22T06:08:29.147Z,15.3
2018-04-22T06:09:51.496Z,15.4
2018-04-22T06:11:11.371Z,15.5
2018-04-22T06:12:31.190Z,15.5
2018-04-22T06:13:51.007Z,15.6
2018-04-22T06:15:10.854Z,15.5
2018-04-22T06:16:30.663Z,15.5
2018-04-22T06:17:50.485Z,15.5
2018-04-22T06:19:10.342Z,15.6
2018-04-22T06:20:32.723Z,15.7
2018-04-22T06:21:52.595Z,15.7
2018-04-22T06:23:12.493Z,15.7
2018-04-22T06:24:34.865Z,15.7
2018-04-22T06:26:04.807Z,15.8
2018-04-22T06:27:24.687Z,15.7
2018-04-22T06:28:47.086Z,15.6
2018-04-22T06:30:09.471Z,15.6
2018-04-22T06:31:31.833Z,15.7
2018-04-22T06:32:54.237Z,15.7
2018-04-22T06:34:14.115Z,15.8
2018-04-22T06:35:36.465Z,15.7
2018-04-22T06:36:58.848Z,15.7
2018-04-22T06:38:18.688Z,15.9
2018-04-22T06:39:38.545Z,16
2018-04-22T06:40:58.415Z,16
2018-04-22T06:42:20.764Z,16
2018-04-22T06:43:43.159Z,16
2018-04-22T06:45:05.501Z,16.1
2018-04-22T06:46:25.323Z,16.2
2018-04-22T06:47:45.192Z,16.1
2018-04-22T06:49:05.038Z,16.2
2018-04-22T06:50:27.416Z,16.1
2018-04-22T06:51:54.821Z,16.1
2018-04-22T06:53:22.271Z,16.1
2018-04-22T06:54:44.637Z,16.3
2018-04-22T06:56:04.454Z,16.3
2018-04-22T06:57:24.301Z,16.2
2018-04-22T06:58:44.166Z,16.3
2018-04-22T07:00:06.522Z,16.2
2018-04-22T07:01:28.897Z,16.2
2018-04-22T07:02:48.797Z,16.2
2018-04-22T07:04:08.655Z,16.2
2018-04-22T07:05:33.601Z,16.2
2018-04-22T07:06:55.961Z,16.2
2018-04-22T07:08:15.825Z,16.3
2018-04-22T07:09:35.656Z,16.3
2018-04-22T07:10:58.051Z,16.4
2018-04-22T07:12:17.878Z,16.4
2018-04-22T07:13:47.849Z,16.5
2018-04-22T07:15:07.706Z,16.5
2018-04-22T07:16:30.049Z,16.4
2018-04-22T07:17:57.493Z,16.3
2018-04-22T07:19:22.414Z,16.4
2018-04-22T07:20:42.284Z,16.4
2018-04-22T07:22:09.684Z,16.4
2018-04-22T07:23:29.572Z,16.5
2018-04-22T07:24:51.952Z,16.3
2018-04-22T07:26:14.342Z,16.5
2018-04-22T07:27:36.737Z,16.5
2018-04-22T07:28:56.593Z,16.4
2018-04-22T07:30:18.994Z,16.5
2018-04-22T07:31:38.823Z,16.6
2018-04-22T07:33:01.166Z,16.6
2018-04-22T07:34:20.983Z,16.7
2018-04-22T07:35:40.796Z,16.6
2018-04-22T07:37:03.152Z,16.8
2018-04-22T07:38:30.580Z,16.8
2018-04-22T07:39:55.463Z,16.8
2018-04-22T07:41:27.990Z,16.8
2018-04-22T07:42:47.815Z,16.8
2018-04-22T07:44:10.174Z,16.9
2018-04-22T07:45:42.712Z,16.9
2018-04-22T07:47:05.074Z,16.9
2018-04-22T07:48:32.539Z,16.9
2018-04-22T07:49:54.908Z,16.9
2018-04-22T07:51:14.727Z,17
2018-04-22T07:52:34.543Z,16.9
2018-04-22T07:53:54.354Z,16.9
2018-04-22T07:55:16.717Z,16.9
2018-04-22T07:56:36.531Z,17
2018-04-22T07:57:56.418Z,17.1
2018-04-22T07:59:16.238Z,17.1
2018-04-22T08:00:38.591Z,17.3
2018-04-22T08:02:06.007Z,17.2
2018-04-22T08:03:25.827Z,17.2
2018-04-22T08:04:45.651Z,17.3
2018-04-22T08:06:08.007Z,17.3
2018-04-22T08:07:30.356Z,17.2
2018-04-22T08:08:50.174Z,17.4
2018-04-22T08:10:10.015Z,17.3
2018-04-22T08:11:29.834Z,17.4
2018-04-22T08:12:59.844Z,17.4
2018-04-22T08:14:19.665Z,17.6
2018-04-22T08:15:39.503Z,17.6
2018-04-22T08:17:01.881Z,17.7
2018-04-22T08:18:26.783Z,17.7
2018-04-22T08:19:49.147Z,17.7
2018-04-22T08:21:08.969Z,17.7
2018-04-22T08:22:31.340Z,17.8
2018-04-22T08:24:03.859Z,17.7
2018-04-22T08:25:26.234Z,17.8
2018-04-22T08:26:46.058Z,17.8
2018-04-22T08:28:08.406Z,17.8
2018-04-22T08:29:28.255Z,17.9
2018-04-22T08:30:48.081Z,17.9
2018-04-22T08:32:18.077Z,17.9
2018-04-22T08:33:40.427Z,17.9
2018-04-22T08:35:00.248Z,18
2018-04-22T08:36:20.124Z,18
2018-04-22T08:37:39.941Z,18
2018-04-22T08:39:02.311Z,18.1
2018-04-22T08:40:24.711Z,18.1
2018-04-22T08:41:44.593Z,18.1
2018-04-22T08:43:07.035Z,18.1
2018-04-22T08:44:26.882Z,18
2018-04-22T08:45:54.289Z,18.1
2018-04-22T08:47:14.116Z,18.1
2018-04-22T08:48:41.552Z,18.1
2018-04-22T08:50:01.381Z,18.1
2018-04-22T08:51:21.231Z,18.2
2018-04-22T08:52:58.814Z,18.2
2018-04-22T08:54:18.633Z,18.2
2018-04-22T08:55:41.018Z,18.2
2018-04-22T08:57:00.839Z,18
2018-04-22T08:58:23.204Z,18
2018-04-22T08:59:53.192Z,18
2018-04-22T09:01:13.066Z,18
2018-04-22T09:02:32.924Z,18.1
2018-04-22T09:03:52.738Z,18.1
2018-04-22T09:05:12.608Z,18.1
2018-04-22T09:06:32.432Z,18.2
2018-04-22T09:07:57.357Z,18.2
2018-04-22T09:09:17.208Z,18.2
2018-04-22T09:10:37.061Z,18.2
2018-04-22T09:11:56.909Z,18.3
2018-04-22T09:13:21.874Z,18.3
2018-04-22T09:14:46.813Z,18.4
2018-04-22T09:16:06.708Z,18.4
2018-04-22T09:17:26.552Z,18.3
2018-04-22T09:18:46.453Z,18.6
2018-04-22T09:20:16.411Z,18.3
2018-04-22T09:21:43.821Z,18.4
2018-04-22T09:23:06.184Z,18.6
2018-04-22T09:24:26.055Z,18.4
2018-04-22T09:25:48.440Z,18.4
2018-04-22T09:27:15.859Z,18.5
2018-04-22T09:28:35.685Z,18.5
2018-04-22T09:29:58.038Z,18.7
2018-04-22T09:31:25.446Z,18.6
2018-04-22T09:32:52.863Z,18.6
2018-04-22T09:34:17.741Z,18.7
2018-04-22T09:35:42.638Z,18.7
2018-04-22T09:37:02.461Z,18.6
2018-04-22T09:38:22.323Z,18.8
2018-04-22T09:39:42.212Z,18.8
2018-04-22T09:41:02.065Z,18.8
2018-04-22T09:42:21.912Z,18.8
2018-04-22T09:43:44.299Z,18.9
2018-04-22T09:45:06.680Z,18.8
2018-04-22T09:46:56.898Z,18.9
2018-04-22T09:48:21.838Z,18.9
2018-04-22T09:49:44.239Z,18.9
2018-04-22T09:51:06.654Z,18.8
2018-04-22T09:52:26.498Z,18.8
2018-04-22T09:53:46.345Z,18.8
2018-04-22T09:55:06.217Z,18.9
2018-04-22T09:56:28.601Z,19.2
2018-04-22T09:57:48.426Z,19.2
2018-04-22T09:59:10.779Z,19.2
2018-04-22T10:00:30.598Z,19.2
2018-04-22T10:02:00.544Z,19.2
2018-04-22T10:03:20.392Z,19.3
2018-04-22T10:04:40.267Z,19.3
2018-04-22T10:06:05.163Z,19.3
2018-04-22T10:07:24.987Z,19.4
2018-04-22T10:08:49.866Z,19.4
2018-04-22T10:10:09.690Z,19.4
2018-04-22T10:11:29.533Z,19.4
2018-04-22T10:12:49.351Z,19.5
2018-04-22T10:14:09.219Z,19.5
2018-04-22T10:15:31.611Z,19.3
2018-04-22T10:17:01.615Z,19.1
2018-04-22T10:18:21.456Z,19.2
2018-04-22T10:19:41.297Z,19.2
2018-04-22T10:21:08.721Z,19.2
2018-04-22T10:22:41.282Z,19.2
2018-04-22T10:24:01.117Z,19.3
2018-04-22T10:25:21.005Z,19.3
2018-04-22T10:26:40.850Z,19.2
2018-04-22T10:28:00.719Z,19.4
2018-04-22T10:29:20.579Z,19.2
2018-04-22T10:30:40.418Z,19.3
2018-04-22T10:32:10.369Z,19.3
2018-04-22T10:33:30.184Z,19.3
2018-04-22T10:34:50.009Z,19.3
2018-04-22T10:36:12.378Z,19.3
2018-04-22T10:37:39.832Z,19.4
2018-04-22T10:39:02.196Z,19.4
2018-04-22T10:40:27.142Z,19.4
2018-04-22T10:41:47.005Z,19.7
2018-04-22T10:43:09.370Z,19.7
2018-04-22T10:44:29.190Z,19.6
2018-04-22T10:46:09.269Z,19.6
2018-04-22T10:47:29.089Z,19.7
2018-04-22T10:48:56.577Z,19.7
2018-04-22T10:50:16.428Z,19.7
2018-04-22T10:51:41.346Z,19.8
2018-04-22T10:53:03.735Z,19.6
2018-04-22T10:54:26.143Z,19.6
2018-04-22T10:55:45.985Z,19.6
2018-04-22T10:57:05.875Z,19.8
2018-04-22T10:58:38.409Z,19.6
2018-04-22T10:59:58.273Z,19.7
2018-04-22T11:01:18.120Z,19.7
2018-04-22T11:02:43.060Z,19.7
2018-04-22T11:04:05.409Z,19.8
2018-04-22T11:05:25.237Z,19.9
2018-04-22T11:06:47.606Z,19.9
2018-04-22T11:08:12.483Z,19.9
2018-04-22T11:09:37.370Z,20
2018-04-22T11:11:02.290Z,19.9
2018-04-22T11:12:22.157Z,20.1
2018-04-22T11:13:44.512Z,20
2018-04-22T11:15:04.401Z,20
2018-04-22T11:16:44.469Z,20
2018-04-22T11:18:11.919Z,20.1
2018-04-22T11:19:41.851Z,20.1
2018-04-22T11:21:01.721Z,20.1
2018-04-22T11:22:24.085Z,20
2018-04-22T11:23:43.950Z,20.2
2018-04-22T11:25:03.769Z,20.2
2018-04-22T11:26:26.150Z,20.2
2018-04-22T11:27:46.004Z,20.2
2018-04-22T11:29:05.842Z,20.2
2018-04-22T11:30:25.672Z,20.1
2018-04-22T11:31:45.543Z,20.3
2018-04-22T11:33:28.180Z,20.3
2018-04-22T11:34:48.037Z,20.4
2018-04-22T11:36:15.446Z,20.3
2018-04-22T11:37:40.343Z,20.4
2018-04-22T11:39:02.710Z,20.4
2018-04-22T11:40:27.599Z,20.4
2018-04-22T11:41:47.449Z,20.4
2018-04-22T11:43:07.265Z,20.4
2018-04-22T11:44:29.609Z,20.5
2018-04-22T11:45:49.512Z,20.3
2018-04-22T11:47:11.885Z,20.4
2018-04-22T11:48:31.717Z,20.5
2018-04-22T11:49:56.630Z,20.7
2018-04-22T11:51:21.552Z,20.5
2018-04-22T11:52:41.418Z,20.6
2018-04-22T11:54:03.764Z,20.7
2018-04-22T11:55:23.601Z,20.7
2018-04-22T11:56:43.452Z,20.7
2018-04-22T11:58:10.915Z,20.8
2018-04-22T11:59:35.890Z,20.8
2018-04-22T12:00:55.741Z,20.9
2018-04-22T12:02:15.705Z,21.1
2018-04-22T12:03:35.561Z,21.1
2018-04-22T12:04:55.456Z,21.2
2018-04-22T12:06:30.503Z,21.2
2018-04-22T12:08:03.057Z,20.9
2018-04-22T12:09:25.422Z,21.5
2018-04-22T12:10:45.299Z,21.6
2018-04-22T12:12:05.113Z,21.7
2018-04-22T12:13:27.520Z,21.6
2018-04-22T12:14:49.897Z,21.7
2018-04-22T12:16:14.778Z,21.7
2018-04-22T12:17:34.599Z,21.7
2018-04-22T12:18:56.994Z,21.7
2018-04-22T12:20:16.834Z,21.8
2018-04-22T12:21:36.699Z,22
2018-04-22T12:22:56.537Z,22.1
2018-04-22T12:24:16.388Z,22.3
2018-04-22T12:25:36.234Z,22.3
2018-04-22T12:26:58.624Z,22.3
2018-04-22T12:28:18.453Z,22.4
2018-04-22T12:29:45.942Z,22.5
2018-04-22T12:31:05.799Z,22.6
2018-04-22T12:32:25.642Z,22.6
2018-04-22T12:33:45.491Z,22.6
2018-04-22T12:35:07.851Z,22.6
2018-04-22T12:36:32.740Z,22.3
2018-04-22T12:37:52.595Z,22.2
2018-04-22T12:39:22.599Z,22.7
2018-04-22T12:40:42.416Z,22.3
2018-04-22T12:42:12.366Z,22.6
2018-04-22T12:43:32.196Z,22.6
2018-04-22T12:44:52.034Z,22.7
2018-04-22T12:46:16.911Z,22.5
2018-04-22T12:47:36.735Z,22.6
2018-04-22T12:49:01.613Z,22.7
2018-04-22T12:50:21.467Z,22.7
2018-04-22T12:51:43.812Z,22.9
2018-04-22T12:53:06.194Z,23.2
2018-04-22T12:54:26.044Z,23
2018-04-22T12:55:45.888Z,23.3
2018-04-22T12:57:05.772Z,23.5
2018-04-22T12:58:28.119Z,23.3
2018-04-22T12:59:50.562Z,23.4
2018-04-22T13:01:17.987Z,23.4
2018-04-22T13:02:40.406Z,23.4
2018-04-22T13:04:00.252Z,23.6
2018-04-22T13:05:20.166Z,23.4
2018-04-22T13:06:40.037Z,23.4
2018-04-22T13:08:07.467Z,23.4
2018-04-22T13:09:27.295Z,23.4
2018-04-22T13:10:49.670Z,23.5
2018-04-22T13:12:14.589Z,23.5
2018-04-22T13:13:34.406Z,23.3
2018-04-22T13:14:56.760Z,23.5
2018-04-22T13:16:16.586Z,23.4
2018-04-22T13:17:43.992Z,23.6
2018-04-22T13:19:11.399Z,23.4
2018-04-22T13:20:36.310Z,23.5
2018-04-22T13:21:58.697Z,23.6
2018-04-22T13:23:21.126Z,23.5
2018-04-22T13:24:40.997Z,23.6
2018-04-22T13:26:05.901Z,23.8
2018-04-22T13:27:28.282Z,23.7
2018-04-22T13:28:55.735Z,23.5
2018-04-22T13:30:15.613Z,23.5
2018-04-22T13:31:35.512Z,23.4
2018-04-22T13:32:55.366Z,23.4
2018-04-22T13:34:17.717Z,23.3
2018-04-22T13:35:40.123Z,23.3
2018-04-22T13:37:00.055Z,23.2
2018-04-22T13:38:19.935Z,23.1
2018-04-22T13:39:44.828Z,23.3
2018-04-22T13:41:04.638Z,23.2
2018-04-22T13:42:34.580Z,23.2
2018-04-22T13:43:56.931Z,23.3
2018-04-22T13:45:19.288Z,23.2
2018-04-22T13:46:46.705Z,23.1
2018-04-22T13:48:09.109Z,23.2
2018-04-22T13:49:39.101Z,23.2
2018-04-22T13:50:58.918Z,23.2
2018-04-22T13:52:18.761Z,23.2
2018-04-22T13:53:38.605Z,23.3
2018-04-22T13:54:58.430Z,23.3
2018-04-22T13:56:28.411Z,23.3
2018-04-22T13:57:48.249Z,23.2
2018-04-22T13:59:10.646Z,23.2
2018-04-22T14:00:30.492Z,23.2
2018-04-22T14:02:02.973Z,23.1
2018-04-22T14:03:22.826Z,23.2
2018-04-22T14:04:47.695Z,23.1
2018-04-22T14:06:07.528Z,23.2
2018-04-22T14:07:29.895Z,23.2
2018-04-22T14:08:49.734Z,23.2
2018-04-22T14:10:17.211Z,23.2
2018-04-22T14:11:39.563Z,23.2
2018-04-22T14:13:01.948Z,23.2
2018-04-22T14:14:24.336Z,23.3
2018-04-22T14:15:46.732Z,23.4
2018-04-22T14:17:14.140Z,23.3
2018-04-22T14:18:39.091Z,23.2
2018-04-22T14:19:58.912Z,23.2
2018-04-22T14:21:18.759Z,23.2
2018-04-22T14:22:43.655Z,23.3
2018-04-22T14:24:03.515Z,23.3
2018-04-22T14:25:25.906Z,23.4
2018-04-22T14:26:48.311Z,23.3
2018-04-22T14:28:08.129Z,23.4
2018-04-22T14:29:27.954Z,23.4
2018-04-22T14:30:50.388Z,23.3
2018-04-22T14:32:12.741Z,23.3
2018-04-22T14:33:32.610Z,23.5
2018-04-22T14:34:54.956Z,23.4
2018-04-22T14:36:14.798Z,23.3
2018-04-22T14:37:34.612Z,23.2
2018-04-22T14:38:54.428Z,23.4
2018-04-22T14:40:14.258Z,23.2
2018-04-22T14:41:34.121Z,23.3
2018-04-22T14:42:56.520Z,23.3
2018-04-22T14:44:21.399Z,23.3
2018-04-22T14:45:48.820Z,23.4
2018-04-22T14:47:13.736Z,23.1
2018-04-22T14:48:36.097Z,23.3
2018-04-22T14:50:08.578Z,23.5
2018-04-22T14:51:28.402Z,23.4
2018-04-22T14:52:48.232Z,23.4
2018-04-22T14:54:15.663Z,23.4
2018-04-22T14:55:35.562Z,23.5
2018-04-22T14:57:00.481Z,23.6
2018-04-22T14:58:22.854Z,23.9
2018-04-22T14:59:42.728Z,23.9
2018-04-22T15:01:05.146Z,23.8
2018-04-22T15:02:24.990Z,23.8
2018-04-22T15:03:44.838Z,23.8
2018-04-22T15:05:04.690Z,23.8
2018-04-22T15:06:24.558Z,23.9
2018-04-22T15:07:44.432Z,24
2018-04-22T15:09:06.813Z,24
2018-04-22T15:10:26.634Z,23.8
2018-04-22T15:11:48.991Z,24
2018-04-22T15:13:08.809Z,23.9
2018-04-22T15:14:33.761Z,23.9
2018-04-22T15:15:53.578Z,23.7
2018-04-22T15:17:13.389Z,23.7
2018-04-22T15:18:35.807Z,23.8
2018-04-22T15:19:55.685Z,23.7
2018-04-22T15:21:18.100Z,23.5
2018-04-22T15:22:42.983Z,23.5
2018-04-22T15:24:02.844Z,23.5
2018-04-22T15:25:27.726Z,23.4
2018-04-22T15:26:47.567Z,23.4
2018-04-22T15:28:09.981Z,23.5
2018-04-22T15:29:29.878Z,23.5
2018-04-22T15:30:52.272Z,23.5
2018-04-22T15:32:12.093Z,23.4
2018-04-22T15:33:31.914Z,23.3
2018-04-22T15:34:51.747Z,23.2
2018-04-22T15:36:14.094Z,23.1
2018-04-22T15:37:44.063Z,23.2
2018-04-22T15:39:03.890Z,23.2
2018-04-22T15:40:26.245Z,23.1
2018-04-22T15:41:48.597Z,23
2018-04-22T15:43:13.493Z,23.2
2018-04-22T15:44:35.853Z,23.1
2018-04-22T15:46:03.284Z,23
2018-04-22T15:47:25.686Z,23
2018-04-22T15:48:50.600Z,23
2018-04-22T15:50:10.452Z,23
2018-04-22T15:51:35.353Z,22.9
2018-04-22T15:53:07.842Z,22.9
2018-04-22T15:54:30.234Z,22.8
2018-04-22T15:55:50.087Z,22.8
2018-04-22T15:57:09.935Z,22.8
2018-04-22T15:58:29.770Z,22.7
2018-04-22T15:59:49.591Z,22.7
2018-04-22T16:01:17.038Z,22.9
2018-04-22T16:02:39.381Z,22.7
2018-04-22T16:03:59.211Z,22.7
2018-04-22T16:05:19.098Z,22.7
2018-04-22T16:06:41.483Z,22.6
2018-04-22T16:08:03.888Z,22.6
2018-04-22T16:09:26.236Z,22.6
2018-04-22T16:10:46.052Z,22.7
2018-04-22T16:12:05.879Z,22.6
2018-04-22T16:13:25.695Z,22.6
2018-04-22T16:14:48.057Z,22.6
2018-04-22T16:16:10.438Z,22.4
2018-04-22T16:17:32.808Z,22.3
2018-04-22T16:18:52.677Z,22.4
2018-04-22T16:20:12.523Z,22.6
2018-04-22T16:21:34.900Z,22.7
2018-04-22T16:23:02.308Z,22.7
2018-04-22T16:24:27.193Z,22.5
2018-04-22T16:25:52.103Z,22.4
2018-04-22T16:27:14.466Z,22.3
2018-04-22T16:28:34.323Z,22.2
2018-04-22T16:30:01.751Z,22.1
2018-04-22T16:31:21.580Z,22
2018-04-22T16:32:43.956Z,22.1
2018-04-22T16:34:03.820Z,22.1
2018-04-22T16:35:23.652Z,22
2018-04-22T16:36:43.566Z,22.1
2018-04-22T16:38:05.909Z,22
2018-04-22T16:39:33.359Z,22.1
2018-04-22T16:40:53.219Z,22
2018-04-22T16:42:13.049Z,21.9
2018-04-22T16:43:32.873Z,21.9
2018-04-22T16:44:52.705Z,21.9
2018-04-22T16:46:15.074Z,21.9
2018-04-22T16:47:34.915Z,21.8
2018-04-22T16:49:09.958Z,21.8
2018-04-22T16:50:29.839Z,21.7
2018-04-22T16:51:49.695Z,21.8
2018-04-22T16:53:09.547Z,21.8
2018-04-22T16:54:31.939Z,21.7
2018-04-22T16:55:54.361Z,21.7
2018-04-22T16:57:16.748Z,21.7
2018-04-22T16:58:36.566Z,21.7
2018-04-22T16:59:56.388Z,21.7
2018-04-22T17:01:26.334Z,21.6
2018-04-22T17:02:48.710Z,21.7
2018-04-22T17:04:08.532Z,21.6
2018-04-22T17:05:30.894Z,21.6
2018-04-22T17:06:50.796Z,21.6
2018-04-22T17:08:13.140Z,21.5
2018-04-22T17:09:32.981Z,21.5
2018-04-22T17:10:52.804Z,21.4
2018-04-22T17:12:12.620Z,21.5
2018-04-22T17:13:32.444Z,21.5
2018-04-22T17:14:57.420Z,21.4
2018-04-22T17:16:27.396Z,21.3
2018-04-22T17:17:52.275Z,21.3
2018-04-22T17:19:14.686Z,21.3
2018-04-22T17:20:37.041Z,21.2
2018-04-22T17:21:56.875Z,21.3
2018-04-22T17:23:19.217Z,21.3
2018-04-22T17:24:44.157Z,21.3
2018-04-22T17:26:06.563Z,21.3
2018-04-22T17:27:26.406Z,21.2
2018-04-22T17:28:46.293Z,21.2
2018-04-22T17:30:13.724Z,21
2018-04-22T17:31:33.583Z,21.2
2018-04-22T17:33:01.025Z,21.1
2018-04-22T17:34:25.953Z,21.1
2018-04-22T17:35:48.312Z,21.1
2018-04-22T17:37:10.709Z,21.1
2018-04-22T17:38:30.533Z,21.1
2018-04-22T17:39:50.348Z,21.1
2018-04-22T17:41:15.244Z,21
2018-04-22T17:42:40.198Z,21
2018-04-22T17:44:00.100Z,21
2018-04-22T17:45:19.939Z,20.9
2018-04-22T17:46:42.283Z,20.9
2018-04-22T17:48:02.105Z,20.9
2018-04-22T17:49:24.545Z,20.9
2018-04-22T17:50:44.425Z,20.8
2018-04-22T17:52:09.329Z,20.8
2018-04-22T17:53:29.155Z,20.7
2018-04-22T17:54:59.129Z,20.8
2018-04-22T17:56:19.028Z,20.7
2018-04-22T17:57:38.896Z,20.7
2018-04-22T17:59:06.363Z,20.7
2018-04-22T18:00:26.180Z,20.7
2018-04-22T18:01:46.071Z,20.7
2018-04-22T18:03:08.498Z,20.6
2018-04-22T18:04:33.409Z,20.6
2018-04-22T18:05:55.754Z,20.6
2018-04-22T18:07:18.103Z,20.6
2018-04-22T18:08:43.043Z,20.6
2018-04-22T18:10:10.464Z,20.6
2018-04-22T18:11:30.287Z,20.5
2018-04-22T18:12:52.635Z,20.5
2018-04-22T18:14:12.456Z,20.5
2018-04-22T18:15:32.283Z,20.5
2018-04-22T18:16:54.659Z,20.5
2018-04-22T18:18:14.501Z,20.5
2018-04-22T18:19:34.343Z,20.5